Time;durP1;ratioP1;P1;durP2;ratioP2;P2;SDS_P1;SDS_P2;PMS_P1;PMS_P2;Temp;Humidity;BMP_temperature;BMP_pressure;BME280_temperature;BME280_humidity;BME280_pressure;Samples;Min_cycle;Max_cycle;Signal;HPM_P1;HPM_P2
2023/01/20 04:01:55;;;;;;;;;;;0.30;99.90;;;;;;6033598;23;20027;-81
2023/01/20 04:04:20;;;;;;;;;;;0.30;99.90;;;;;;6046047;23;19914;-80
2023/01/20 04:06:48;;;;;;;58.08;16.77;;;0.30;99.90;;;;;;6045305;23;19952;-80
2023/01/20 04:09:19;;;;;;;58.42;16.23;;;0.30;99.90;;;;;;6045527;23;20062;-78
2023/01/20 04:11:45;;;;;;;66.65;19.70;;;0.20;99.90;;;;;;6052216;23;20008;-75
2023/01/20 04:14:11;;;;;;;56.35;17.73;;;0.30;99.90;;;;;;6016929;23;20102;-82
2023/01/20 04:16:37;;;;;;;61.00;18.45;;;0.30;99.90;;;;;;6016964;23;20508;-82
2023/01/20 04:19:02;;;;;;;56.75;16.63;;;0.20;99.90;;;;;;6017209;23;20025;-78
2023/01/20 04:21:39;;;;;;;62.30;19.25;;;0.30;99.90;;;;;;6041949;23;20046;-80
2023/01/20 04:24:46;;;;;;;56.95;18.23;;;0.30;99.90;;;;;;6016711;23;20019;-79
2023/01/20 04:27:12;;;;;;;58.88;18.73;;;0.30;99.90;;;;;;5904582;24;20048;-82
2023/01/20 04:29:40;;;;;;;59.47;19.95;;;0.30;99.90;;;;;;5927159;24;20024;-82
2023/01/20 04:32:05;;;;;;;62.08;18.70;;;0.30;99.90;;;;;;5957867;23;20038;-77
2023/01/20 04:34:31;;;;;;;60.42;19.80;;;0.40;99.90;;;;;;6016224;23;20094;-77
2023/01/20 04:36:57;;;;;;;52.25;17.52;;;0.40;99.90;;;;;;5992895;23;20458;-78
2023/01/20 04:39:22;;;;;;;63.88;19.23;;;0.40;99.90;;;;;;6016283;23;20017;-79
2023/01/20 04:41:48;;;;;;;56.13;18.65;;;0.40;99.90;;;;;;6016714;23;20023;-78
2023/01/20 04:44:14;;;;;;;59.00;20.45;;;0.40;99.90;;;;;;6016754;23;20118;-79
2023/01/20 04:46:39;;;;;;;53.65;19.33;;;0.40;99.90;;;;;;6016504;23;20019;-79
2023/01/20 04:49:05;;;;;;;58.85;19.52;;;0.40;99.90;;;;;;6016688;23;20015;-79
2023/01/20 04:51:31;;;;;;;65.60;20.73;;;0.40;99.90;;;;;;6017123;23;20476;-83
2023/01/20 04:53:58;;;;;;;54.90;19.98;;;0.40;99.90;;;;;;5993029;23;20015;-84
2023/01/20 04:56:24;;;;;;;56.00;19.25;;;0.50;99.90;;;;;;6016477;23;20012;-80
2023/01/20 04:58:50;;;;;;;50.63;17.73;;;0.40;99.90;;;;;;5993512;23;20459;-82
2023/01/20 05:01:16;;;;;;;59.35;19.30;;;0.40;99.90;;;;;;6041703;23;20071;-78
2023/01/20 05:03:41;;;;;;;65.60;20.65;;;0.40;99.90;;;;;;6016426;23;20011;-79
2023/01/20 05:06:09;;;;;;;59.55;19.60;;;0.50;99.90;;;;;;6016748;23;20140;-79
2023/01/20 05:08:35;;;;;;;57.03;20.08;;;0.50;99.90;;;;;;6016243;23;20094;-78
2023/01/20 05:11:01;;;;;;;53.45;18.35;;;0.50;99.90;;;;;;6016378;23;20076;-80
2023/01/20 05:13:27;;;;;;;61.35;20.75;;;0.50;99.90;;;;;;6016526;23;20011;-82
2023/01/20 05:15:53;;;;;;;61.67;20.30;;;0.50;99.90;;;;;;6016814;23;20079;-81
2023/01/20 05:18:19;;;;;;;61.75;20.42;;;0.50;99.90;;;;;;6015516;23;20411;-76
2023/01/20 05:20:46;;;;;;;61.58;20.33;;;0.50;99.90;;;;;;6041374;23;20015;-80
2023/01/20 05:23:12;;;;;;;56.20;19.30;;;0.50;99.90;;;;;;6016638;23;20026;-77
2023/01/20 05:25:38;;;;;;;67.30;21.02;;;0.50;99.90;;;;;;6040868;23;20011;-82
2023/01/20 05:28:04;;;;;;;68.85;20.98;;;0.50;99.90;;;;;;5993325;23;20016;-79
2023/01/20 05:30:30;;;;;;;63.30;21.58;;;0.50;99.90;;;;;;6016861;23;20015;-79
2023/01/20 05:32:55;;;;;;;67.72;21.55;;;0.50;99.90;;;;;;6017407;23;20023;-82
2023/01/20 05:35:21;;;;;;;66.75;21.92;;;0.60;99.90;;;;;;6041825;23;20022;-81
2023/01/20 05:37:47;;;;;;;68.03;20.80;;;0.50;99.90;;;;;;6042069;23;20011;-83
2023/01/20 05:40:13;;;;;;;67.10;21.83;;;0.50;99.90;;;;;;6041898;23;20015;-76
2023/01/20 05:42:39;;;;;;;64.97;22.33;;;0.50;99.90;;;;;;6016567;23;20094;-78
2023/01/20 05:45:05;;;;;;;73.18;21.73;;;0.50;99.90;;;;;;6016419;23;20059;-78
2023/01/20 05:47:31;;;;;;;68.30;20.95;;;0.50;99.90;;;;;;6016152;23;20020;-79
2023/01/20 05:49:56;;;;;;;72.95;23.17;;;0.50;99.90;;;;;;6041815;23;20095;-79
2023/01/20 05:52:22;;;;;;;61.13;19.83;;;0.40;99.90;;;;;;6016610;23;20353;-79
2023/01/20 05:54:47;;;;;;;72.65;23.42;;;0.50;99.90;;;;;;6016985;23;20011;-80
2023/01/20 05:57:17;;;;;;;72.78;23.92;;;0.40;99.90;;;;;;6042359;23;20018;-80
2023/01/20 05:59:46;;;;;;;75.25;23.75;;;0.40;99.90;;;;;;5993574;23;20019;-79
2023/01/20 06:02:14;;;;;;;76.20;24.42;;;0.40;99.90;;;;;;6017275;23;20019;-80
2023/01/20 06:04:40;;;;;;;76.50;23.48;;;0.40;99.90;;;;;;6041687;23;20018;-79
2023/01/20 06:07:06;;;;;;;72.40;24.98;;;0.40;99.90;;;;;;6016101;23;20012;-78
2023/01/20 06:09:31;;;;;;;79.65;24.65;;;0.40;99.90;;;;;;6015384;23;20086;-80
2023/01/20 06:11:57;;;;;;;81.47;25.95;;;0.40;99.90;;;;;;6015957;23;20019;-82
2023/01/20 06:14:22;;;;;;;81.75;25.35;;;0.40;99.90;;;;;;6041621;23;20011;-80
2023/01/20 06:16:49;;;;;;;82.55;25.85;;;0.40;99.90;;;;;;5994110;23;20058;-76
2023/01/20 06:19:14;;;;;;;80.43;25.77;;;0.40;99.90;;;;;;6016657;23;20066;-78
2023/01/20 06:21:40;;;;;;;86.28;27.13;;;0.40;99.90;;;;;;6016587;23;20030;-83
2023/01/20 06:24:06;;;;;;;87.35;26.48;;;0.40;99.90;;;;;;6018530;23;20091;-82
2023/01/20 06:26:31;;;;;;;85.05;27.48;;;0.40;99.90;;;;;;6017536;23;20011;-79
2023/01/20 06:28:59;;;;;;;84.78;26.95;;;0.40;99.90;;;;;;6018095;23;20346;-80
2023/01/20 06:31:27;;;;;;;81.45;26.33;;;0.40;99.90;;;;;;6042464;23;20374;-79
2023/01/20 06:33:54;;;;;;;85.55;28.10;;;0.50;99.90;;;;;;6017467;23;20022;-77
2023/01/20 06:36:20;;;;;;;89.30;28.63;;;0.50;99.90;;;;;;6017076;23;20086;-81
2023/01/20 06:38:49;;;;;;;79.78;24.48;;;0.50;99.90;;;;;;6043128;23;20072;-82
2023/01/20 06:41:16;;;;;;;85.05;27.05;;;0.50;99.90;;;;;;6017943;23;20019;-79
2023/01/20 06:43:42;;;;;;;80.82;26.77;;;0.50;99.90;;;;;;5993948;23;20442;-79
2023/01/20 06:46:14;;;;;;;86.15;29.00;;;0.50;99.90;;;;;;6017190;23;20019;-81
2023/01/20 06:48:41;;;;;;;77.45;25.65;;;0.50;99.90;;;;;;6017632;23;20050;-80
2023/01/20 06:51:13;;;;;;;76.82;27.13;;;0.50;99.90;;;;;;6017173;23;20058;-83
2023/01/20 06:53:40;;;;;;;74.60;25.95;;;0.50;99.90;;;;;;6017088;23;20338;-79
2023/01/20 06:56:06;;;;;;;74.90;26.25;;;0.50;99.90;;;;;;6016553;23;20035;-78
2023/01/20 06:58:32;;;;;;;76.90;26.13;;;0.50;99.90;;;;;;6016587;23;20394;-80
2023/01/20 07:01:05;;;;;;;79.13;26.17;;;0.50;99.90;;;;;;6042541;23;20015;-76
2023/01/20 07:03:30;;;;;;;75.32;26.75;;;0.50;99.90;;;;;;5994109;23;20023;-76
2023/01/20 07:06:01;;;;;;;83.10;28.02;;;0.50;99.90;;;;;;6017262;23;20023;-80
2023/01/20 07:08:27;;;;;;;80.18;27.33;;;0.50;99.90;;;;;;6017084;23;20011;-79
2023/01/20 07:10:53;;;;;;;78.40;27.52;;;0.50;99.90;;;;;;6041768;23;20015;-79
2023/01/20 07:13:19;;;;;;;72.30;25.52;;;0.60;99.90;;;;;;6017080;23;20350;-77
2023/01/20 07:15:44;;;;;;;70.53;25.30;;;0.50;99.90;;;;;;6016851;23;20011;-76
2023/01/20 07:18:10;;;;;;;80.07;27.52;;;0.60;99.90;;;;;;6016913;23;20067;-77
2023/01/20 07:20:37;;;;;;;71.40;26.13;;;0.60;99.90;;;;;;5993248;23;20019;-81
2023/01/20 07:23:04;;;;;;;81.70;27.25;;;0.60;99.90;;;;;;5993125;23;20094;-79
2023/01/20 07:25:30;;;;;;;77.63;25.05;;;0.60;99.90;;;;;;6041459;23;20023;-82
2023/01/20 07:27:58;;;;;;;76.32;25.67;;;0.60;99.90;;;;;;5992529;23;20349;-76
2023/01/20 07:30:24;;;;;;;74.18;26.13;;;0.60;99.90;;;;;;6040904;23;20091;-76
2023/01/20 07:32:50;;;;;;;81.10;26.77;;;0.60;99.90;;;;;;6015628;23;20011;-80
2023/01/20 07:35:16;;;;;;;73.75;26.98;;;0.60;99.90;;;;;;5992147;23;20020;-82
2023/01/20 07:37:42;;;;;;;76.38;25.88;;;0.60;99.90;;;;;;6016341;23;20015;-82
2023/01/20 07:40:08;;;;;;;72.68;25.63;;;0.60;99.90;;;;;;6015909;23;20465;-83
2023/01/20 07:42:37;;;;;;;83.93;27.67;;;0.70;99.90;;;;;;5992607;23;20019;-83
2023/01/20 07:45:04;;;;;;;85.90;28.40;;;0.60;99.90;;;;;;6015938;23;20067;-78
2023/01/20 07:47:30;;;;;;;82.65;27.58;;;0.70;99.90;;;;;;6016179;23;20026;-80
2023/01/20 07:49:56;;;;;;;80.82;28.05;;;0.70;99.90;;;;;;6015926;23;20098;-78
2023/01/20 07:52:21;;;;;;;80.78;26.80;;;0.70;99.90;;;;;;6015582;23;20378;-79
2023/01/20 07:54:47;;;;;;;88.65;27.17;;;0.70;99.90;;;;;;6015870;23;20450;-81
2023/01/20 07:57:13;;;;;;;91.75;27.38;;;0.70;99.90;;;;;;6016648;23;20011;-83
2023/01/20 07:59:38;;;;;;;87.50;28.00;;;0.70;99.90;;;;;;6016518;23;20345;-80
2023/01/20 08:02:04;;;;;;;87.13;27.23;;;0.70;99.90;;;;;;6017257;23;20027;-80
2023/01/20 08:04:31;;;;;;;80.40;24.75;;;0.70;99.90;;;;;;6042088;23;20019;-78
2023/01/20 08:06:57;;;;;;;78.25;24.77;;;0.70;99.90;;;;;;6018349;23;20382;-80
2023/01/20 08:09:23;;;;;;;73.30;25.38;;;0.70;99.90;;;;;;6025531;23;20042;-77
2023/01/20 08:11:48;;;;;;;82.15;27.55;;;0.70;99.90;;;;;;6029880;23;20067;-72
2023/01/20 08:14:14;;;;;;;77.82;26.15;;;0.70;99.90;;;;;;5996811;23;20015;-77
2023/01/20 08:16:40;;;;;;;77.00;26.00;;;0.80;99.90;;;;;;6017633;23;20071;-77
2023/01/20 08:19:05;;;;;;;80.43;27.15;;;0.80;99.90;;;;;;6017339;23;20397;-84
2023/01/20 08:21:32;;;;;;;83.88;27.10;;;0.80;99.90;;;;;;6016818;23;20015;-82
2023/01/20 08:23:59;;;;;;;77.18;26.55;;;0.80;99.90;;;;;;6016879;23;20011;-81
2023/01/20 08:26:28;;;;;;;83.43;27.02;;;0.90;99.90;;;;;;5993451;23;20022;-78
2023/01/20 08:28:55;;;;;;;83.22;28.25;;;0.90;99.90;;;;;;5993302;23;20031;-82
2023/01/20 08:31:22;;;;;;;78.13;25.80;;;0.90;99.90;;;;;;6016823;23;20022;-80
2023/01/20 08:33:52;;;;;;;69.35;25.27;;;0.90;99.90;;;;;;6041798;23;20015;-79
2023/01/20 08:36:21;;;;;;;84.60;27.90;;;0.90;99.90;;;;;;5993630;23;20574;-84
2023/01/20 08:38:47;;;;;;;78.80;25.88;;;0.90;99.90;;;;;;6041563;23;20015;-81
2023/01/20 08:41:16;;;;;;;87.10;28.05;;;1.00;99.90;;;;;;6015763;23;20098;-77
2023/01/20 08:43:42;;;;;;;75.32;25.23;;;1.00;99.90;;;;;;6016373;23;20054;-84
2023/01/20 08:46:13;;;;;;;78.53;26.10;;;1.00;99.90;;;;;;6017049;23;20063;-76
2023/01/20 08:48:40;;;;;;;80.68;25.75;;;1.00;99.90;;;;;;6015867;23;20051;-79
2023/01/20 08:51:15;;;;;;;77.20;24.17;;;1.00;99.90;;;;;;6041281;23;20078;-81
2023/01/20 08:53:41;;;;;;;;;;;1.10;99.90;;;;;;5994433;23;20015;-79
2023/01/20 08:56:07;;;;;;;;;;;1.10;99.90;;;;;;6016923;23;19929;-83
2023/01/20 08:58:32;;;;;;;74.35;24.83;;;1.10;99.90;;;;;;6016398;23;19989;-81
2023/01/20 09:00:59;;;;;;;81.18;25.90;;;1.10;99.90;;;;;;6016637;23;20023;-81
2023/01/20 09:03:25;;;;;;;74.47;24.88;;;1.10;99.90;;;;;;6016012;23;20070;-79
2023/01/20 09:05:51;;;;;;;73.35;23.42;;;1.10;99.90;;;;;;6015623;23;20050;-80
2023/01/20 09:08:17;;;;;;;82.30;27.38;;;1.20;99.90;;;;;;6015863;23;20019;-77
2023/01/20 09:10:44;;;;;;;90.03;27.65;;;1.20;99.90;;;;;;6015768;23;20027;-82
2023/01/20 09:13:10;;;;;;;81.63;26.75;;;1.20;99.90;;;;;;6041111;23;20011;-82
2023/01/20 09:15:35;;;;;;;80.18;25.38;;;1.20;99.90;;;;;;6041542;23;20030;-80
2023/01/20 09:18:01;;;;;;;77.78;24.80;;;1.20;99.90;;;;;;5992490;23;20034;-85
2023/01/20 09:20:29;;;;;;;70.20;24.52;;;1.20;99.90;;;;;;6041235;23;20060;-83
2023/01/20 09:22:55;;;;;;;80.68;25.05;;;1.30;99.90;;;;;;6016450;23;20030;-80
2023/01/20 09:25:21;;;;;;;78.45;25.60;;;1.30;99.90;;;;;;6040908;23;20039;-80
2023/01/20 09:27:46;;;;;;;75.88;24.85;;;1.30;99.90;;;;;;5992641;23;20044;-78
2023/01/20 09:30:12;;;;;;;69.70;24.17;;;1.30;99.90;;;;;;6041919;23;20011;-80
2023/01/20 09:32:38;;;;;;;70.88;24.13;;;1.30;99.90;;;;;;6015528;23;20090;-77
2023/01/20 09:35:04;;;;;;;75.20;25.85;;;1.40;99.90;;;;;;6015454;23;20038;-80
2023/01/20 09:43:54;;;;;;;75.03;23.10;;;1.40;99.90;;;;;;6039179;23;20035;-79
2023/01/20 09:47:18;;;;;;;67.82;23.67;;;1.40;99.90;;;;;;5991036;23;20442;-80
2023/01/20 09:55:28;;;;;;;61.15;21.35;;;1.50;99.90;;;;;;6041641;23;20015;-80
2023/01/20 09:58:17;;;;;;;63.47;21.00;;;1.50;99.90;;;;;;5993496;23;20382;-82
2023/01/20 10:01:10;;;;;;;61.50;20.90;;;1.50;99.90;;;;;;6017705;23;20019;-79
2023/01/20 10:03:46;;;;;;;57.17;20.67;;;1.60;99.90;;;;;;5965888;23;20021;-80
2023/01/20 10:06:43;;;;;;;62.17;20.33;;;1.60;99.90;;;;;;6042385;23;20015;-81
2023/01/20 10:09:17;;;;;;;66.40;23.35;;;1.60;99.90;;;;;;5993387;23;20015;-80
2023/01/20 10:11:45;;;;;;;58.08;22.08;;;1.60;99.90;;;;;;6042441;23;20039;-80
2023/01/20 10:14:14;;;;;;;62.45;22.35;;;1.60;99.90;;;;;;6017538;23;20035;-80
2023/01/20 10:16:44;;;;;;;61.88;22.63;;;1.70;99.90;;;;;;5993935;23;20322;-78
2023/01/20 10:19:25;;;;;;;56.17;20.73;;;1.70;99.90;;;;;;6042417;23;20034;-80
2023/01/20 10:22:01;;;;;;;62.55;22.15;;;1.70;99.90;;;;;;6017263;23;20014;-83
2023/01/20 10:24:32;;;;;;;60.67;21.80;;;1.70;99.90;;;;;;6042763;23;20015;-81
2023/01/20 10:27:01;;;;;;;61.05;22.52;;;1.80;99.90;;;;;;6017592;23;20450;-79
2023/01/20 10:29:33;;;;;;;65.13;21.92;;;1.80;99.90;;;;;;5993752;23;20019;-82
2023/01/20 10:32:01;;;;;;;62.53;21.63;;;1.80;99.90;;;;;;5994434;23;20023;-79
2023/01/20 10:34:46;;;;;;;60.63;20.83;;;1.90;99.90;;;;;;6017452;23;20026;-76
2023/01/20 10:37:14;;;;;;;56.08;20.23;;;1.80;99.90;;;;;;5994647;23;20095;-78
2023/01/20 10:39:48;;;;;;;59.55;22.25;;;1.90;99.90;;;;;;5994277;23;20019;-81
2023/01/20 10:42:16;;;;;;;63.60;23.13;;;1.90;99.90;;;;;;6018566;23;20062;-79
2023/01/20 10:44:42;;;;;;;53.20;19.60;;;1.90;99.90;;;;;;6018078;23;20090;-79
2023/01/20 10:47:16;;;;;;;58.67;21.13;;;1.90;99.90;;;;;;6043807;23;20015;-77
2023/01/20 10:50:01;;;;;;;54.10;19.95;;;1.90;99.90;;;;;;6017513;23;20024;-82
2023/01/20 10:52:45;;;;;;;55.67;19.67;;;1.90;99.90;;;;;;6017630;23;20015;-81
2023/01/20 10:55:11;;;;;;;52.25;19.83;;;1.90;99.90;;;;;;5994027;23;20051;-77
2023/01/20 10:57:37;;;;;;;55.05;21.10;;;1.80;99.90;;;;;;6017426;23;20023;-79
2023/01/20 11:00:22;;;;;;;54.25;19.90;;;1.80;99.90;;;;;;6042704;23;20019;-77
2023/01/20 11:02:48;;;;;;;53.43;19.47;;;1.90;99.90;;;;;;6043322;23;20019;-81
2023/01/20 11:05:23;;;;;;;51.35;19.48;;;1.90;99.90;;;;;;6017486;23;20019;-77
2023/01/20 11:07:52;;;;;;;55.25;19.83;;;1.90;99.90;;;;;;6043334;23;20015;-80
2023/01/20 11:10:20;;;;;;;51.97;18.73;;;1.90;99.90;;;;;;6016649;23;20107;-80
2023/01/20 11:12:55;;;;;;;53.22;19.48;;;1.90;99.90;;;;;;6016712;23;20496;-76
2023/01/20 11:15:25;;;;;;;58.45;20.70;;;1.80;99.90;;;;;;6017473;23;20050;-81
2023/01/20 11:18:12;;;;;;;52.08;20.38;;;1.90;99.90;;;;;;6018360;23;20047;-82
2023/01/20 11:20:43;;;;;;;54.83;18.60;;;1.90;99.90;;;;;;5994060;23;20019;-76
2023/01/20 11:23:33;;;;;;;55.40;19.50;;;1.90;99.90;;;;;;6017493;23;20450;-82
2023/01/20 11:26:08;;;;;;;49.67;17.98;;;1.90;99.90;;;;;;6017187;23;20047;-80
2023/01/20 11:29:09;;;;;;;45.22;15.85;;;1.80;99.90;;;;;;6016841;23;20035;-79
2023/01/20 11:31:51;;;;;;;56.28;19.40;;;1.80;99.90;;;;;;5971908;23;20019;-78
2023/01/20 11:34:33;;;;;;;49.50;18.88;;;1.80;99.90;;;;;;6017119;23;20025;-79
2023/01/20 11:37:05;;;;;;;53.42;18.95;;;1.80;99.90;;;;;;5993932;23;20011;-83
2023/01/20 11:39:35;;;;;;;52.97;18.25;;;1.80;99.90;;;;;;5993490;23;20026;-78
2023/01/20 11:42:17;;;;;;;47.63;17.63;;;1.80;99.90;;;;;;6016572;23;20015;-80
2023/01/20 11:44:51;;;;;;;46.63;16.95;;;1.80;99.90;;;;;;6017279;23;20019;-83
2023/01/20 11:47:28;;;;;;;45.63;16.45;;;1.80;99.90;;;;;;6017579;23;20019;-80
2023/01/20 11:50:40;;;;;;;45.95;17.58;;;1.80;99.90;;;;;;6017048;23;20087;-78
2023/01/20 11:53:26;;;;;;;48.60;16.67;;;1.80;99.90;;;;;;5978788;23;20026;-85
2023/01/20 11:55:54;;;;;;;46.55;16.58;;;1.80;99.90;;;;;;6017075;23;20054;-80
2023/01/20 11:58:26;;;;;;;45.97;17.73;;;1.80;99.90;;;;;;6042292;23;20016;-80
2023/01/20 12:01:00;;;;;;;44.13;16.05;;;1.80;99.90;;;;;;5993602;23;20033;-80
2023/01/20 12:03:30;;;;;;;47.33;17.88;;;1.80;99.90;;;;;;6042186;23;20050;-81
2023/01/20 12:06:26;;;;;;;45.53;17.52;;;1.80;99.90;;;;;;5993533;23;20029;-80
2023/01/20 12:09:04;;;;;;;48.30;15.90;;;1.80;99.90;;;;;;6007701;23;20019;-78
2023/01/20 12:11:34;;;;;;;45.53;16.30;;;1.80;99.90;;;;;;6016583;23;20019;-77
2023/01/20 12:14:21;;;;;;;48.55;16.33;;;1.80;99.90;;;;;;6017596;23;20331;-80
2023/01/20 12:16:54;;;;;;;43.63;15.77;;;1.80;99.90;;;;;;5994069;23;20015;-82
2023/01/20 12:19:32;;;;;;;45.20;16.38;;;1.80;99.90;;;;;;5994032;23;20019;-76
2023/01/20 12:22:03;;;;;;;46.53;17.17;;;1.80;99.90;;;;;;6017082;23;20082;-79
2023/01/20 12:25:09;;;;;;;47.17;15.23;;;1.80;99.90;;;;;;6042789;23;20011;-81
2023/01/20 12:27:43;;;;;;;45.20;17.08;;;1.80;99.90;;;;;;6016577;23;20037;-76
2023/01/20 12:30:29;;;;;;;41.97;15.15;;;1.80;99.90;;;;;;6016773;23;20015;-76
2023/01/20 12:32:55;;;;;;;47.42;15.93;;;1.80;99.90;;;;;;6017224;23;20047;-79
2023/01/20 12:35:25;;;;;;;43.78;16.83;;;1.80;99.90;;;;;;5995500;23;20011;-79
2023/01/20 12:37:55;;;;;;;51.13;18.17;;;1.80;99.90;;;;;;6020334;23;20011;-76
2023/01/20 12:40:39;;;;;;;45.72;16.30;;;1.80;99.90;;;;;;6026086;23;20015;-73
2023/01/20 12:43:14;;;;;;;49.00;17.25;;;1.80;99.90;;;;;;6002044;23;20122;-80
2023/01/20 12:46:02;;;;;;;48.47;16.83;;;1.80;99.90;;;;;;6017761;23;20019;-81
2023/01/20 12:48:52;;;;;;;52.90;16.73;;;1.80;99.90;;;;;;6017817;23;20579;-80
2023/01/20 12:51:48;;;;;;;49.90;16.08;;;1.80;99.90;;;;;;6018099;23;20375;-81
2023/01/20 12:54:33;;;;;;;51.05;18.10;;;1.90;99.90;;;;;;6016272;23;20016;-81
2023/01/20 12:56:58;;;;;;;48.38;16.92;;;1.90;99.90;;;;;;6016345;23;20015;-80
2023/01/20 13:00:09;;;;;;;45.58;17.52;;;1.90;99.90;;;;;;6016339;23;20019;-86
2023/01/20 13:03:00;;;;;;;53.67;18.27;;;2.00;99.90;;;;;;6001242;23;20019;-79
2023/01/20 13:05:50;;;;;;;50.33;18.13;;;2.00;99.90;;;;;;5992763;23;20015;-81
2023/01/20 13:08:57;;;;;;;49.33;17.17;;;2.00;99.90;;;;;;6016302;23;20016;-79
2023/01/20 13:11:56;;;;;;;46.67;18.02;;;2.00;99.90;;;;;;6015951;23;20408;-80
2023/01/20 13:14:39;;;;;;;47.40;17.85;;;2.00;99.90;;;;;;5992771;23;20022;-82
2023/01/20 13:17:29;;;;;;;46.15;16.48;;;2.10;99.90;;;;;;6041664;23;20051;-84
2023/01/20 13:19:58;;;;;;;50.40;17.77;;;2.10;99.90;;;;;;6016086;23;20528;-79
2023/01/20 13:22:24;;;;;;;49.95;17.60;;;2.10;99.90;;;;;;5992716;23;20391;-83
2023/01/20 13:24:55;;;;;;;50.83;19.30;;;2.10;99.90;;;;;;6017067;23;20057;-81
2023/01/20 13:27:28;;;;;;;48.83;18.83;;;2.10;99.90;;;;;;6016287;23;20020;-83
2023/01/20 13:29:57;;;;;;;54.30;20.00;;;2.10;99.90;;;;;;6016452;23;20067;-85
2023/01/20 13:32:25;;;;;;;52.78;20.13;;;2.10;99.90;;;;;;6016079;23;20524;-79
2023/01/20 13:34:51;;;;;;;51.63;18.13;;;2.10;99.90;;;;;;6018017;23;20443;-80
2023/01/20 13:37:21;;;;;;;54.55;18.67;;;2.10;99.90;;;;;;6018233;23;20026;-82
2023/01/20 13:39:49;;;;;;;49.78;17.60;;;2.10;99.90;;;;;;6043592;23;20026;-84
2023/01/20 13:42:47;;;;;;;51.63;17.67;;;2.20;99.90;;;;;;6018475;23;20072;-82
2023/01/20 13:45:13;;;;;;;48.72;17.30;;;2.10;99.90;;;;;;6015965;23;20128;-79
2023/01/20 13:47:50;;;;;;;43.40;16.85;;;2.10;99.90;;;;;;6016748;23;20019;-80
2023/01/20 13:50:36;;;;;;;48.97;16.95;;;2.20;99.90;;;;;;6016173;23;20058;-80
2023/01/20 13:53:13;;;;;;;45.95;19.08;;;2.20;99.90;;;;;;6016743;23;20086;-81
2023/01/20 13:55:48;;;;;;;45.13;17.38;;;2.20;99.90;;;;;;6016631;23;20015;-82
2023/01/20 13:58:28;;;;;;;47.28;15.95;;;2.20;99.90;;;;;;6017663;23;20468;-83
2023/01/20 14:01:02;;;;;;;38.17;14.98;;;2.20;99.90;;;;;;6018723;23;20023;-78
2023/01/20 14:03:36;;;;;;;43.57;17.03;;;2.30;99.90;;;;;;6018947;23;20019;-81
2023/01/20 14:06:05;;;;;;;43.42;17.40;;;2.30;99.90;;;;;;5995090;23;20023;-79
2023/01/20 14:08:39;;;;;;;39.33;15.50;;;2.30;99.90;;;;;;6018790;23;20016;-82
2023/01/20 14:11:15;;;;;;;38.83;15.57;;;2.30;99.90;;;;;;6018746;23;20382;-82
2023/01/20 14:13:50;;;;;;;41.67;16.15;;;2.30;99.90;;;;;;6019067;23;20015;-80
2023/01/20 14:16:36;;;;;;;39.50;15.07;;;2.40;99.90;;;;;;6019020;23;20048;-79
2023/01/20 14:19:21;;;;;;;;;;;2.40;99.90;;;;;;6018607;23;20244;-80
2023/01/20 14:21:52;;;;;;;37.47;14.68;;;2.30;99.90;;;;;;6017887;23;19921;-79
2023/01/20 14:24:32;;;;;;;38.85;15.43;;;2.40;99.90;;;;;;6018497;23;20015;-80
2023/01/20 14:27:15;;;;;;;35.60;14.93;;;2.30;99.90;;;;;;6044427;23;20011;-78
2023/01/20 14:29:42;;;;;;;43.67;15.38;;;2.30;99.90;;;;;;5994844;23;20450;-80
2023/01/20 14:32:28;;;;;;;39.90;15.82;;;2.30;99.90;;;;;;6018423;23;20098;-81
2023/01/20 14:34:55;;;;;;;37.20;14.63;;;2.40;99.90;;;;;;6018061;23;20012;-82
2023/01/20 14:37:35;;;;;;;36.25;14.00;;;2.40;99.90;;;;;;6018176;23;20037;-84
2023/01/20 14:40:34;;;;;;;38.17;15.35;;;2.40;99.90;;;;;;6044079;23;20047;-78
2023/01/20 14:43:02;;;;;;;35.70;14.07;;;2.40;99.90;;;;;;6033816;23;20019;-78
2023/01/20 14:45:31;;;;;;;40.00;15.50;;;2.30;99.90;;;;;;6018168;23;20012;-79
2023/01/20 14:47:59;;;;;;;35.42;15.15;;;2.40;99.90;;;;;;6018343;23;20058;-82
2023/01/20 14:50:25;;;;;;;39.10;15.07;;;2.30;99.90;;;;;;6017858;23;20023;-79
2023/01/20 14:52:51;;;;;;;37.00;14.35;;;2.30;99.90;;;;;;5993726;23;20509;-82
2023/01/20 14:55:26;;;;;;;42.33;15.30;;;2.30;99.90;;;;;;5993728;23;20013;-81
2023/01/20 14:57:52;;;;;;;38.80;14.55;;;2.30;99.90;;;;;;6017097;23;20063;-82
2023/01/20 15:00:17;;;;;;;42.20;16.02;;;2.30;99.90;;;;;;6016971;23;20019;-80
2023/01/20 15:02:50;;;;;;;45.25;16.65;;;2.20;99.90;;;;;;6017906;23;20446;-79
2023/01/20 15:05:28;;;;;;;43.72;16.45;;;2.20;99.90;;;;;;6017439;23;20019;-82
2023/01/20 15:08:20;;;;;;;40.00;15.50;;;2.20;99.90;;;;;;6016902;23;20346;-81
2023/01/20 15:11:19;;;;;;;44.25;16.45;;;2.20;99.90;;;;;;5993042;23;20066;-77
2023/01/20 15:13:52;;;;;;;41.17;16.15;;;2.20;99.90;;;;;;6007923;23;20026;-81
2023/01/20 15:16:23;;;;;;;43.00;15.98;;;2.20;99.90;;;;;;5993879;23;20087;-76
2023/01/20 15:19:14;;;;;;;47.05;17.08;;;2.20;99.90;;;;;;6017347;23;20015;-80
2023/01/20 15:21:41;;;;;;;36.85;15.07;;;2.20;99.90;;;;;;6017032;23;20015;-82
2023/01/20 15:24:19;;;;;;;39.65;16.13;;;2.10;99.90;;;;;;6016895;23;20019;-82
2023/01/20 15:26:47;;;;;;;38.30;15.68;;;2.10;99.90;;;;;;6042214;23;20446;-79
2023/01/20 15:29:28;;;;;;;46.53;17.35;;;2.10;99.90;;;;;;6016939;23;20026;-82
2023/01/20 15:31:57;;;;;;;39.25;15.52;;;2.10;99.90;;;;;;6042496;23;20016;-84
2023/01/20 15:34:24;;;;;;;36.78;15.00;;;2.10;99.90;;;;;;6017455;23;20396;-79
2023/01/20 15:36:51;;;;;;;37.97;15.65;;;2.10;99.90;;;;;;6042801;23;20061;-77
2023/01/20 15:39:30;;;;;;;42.58;17.50;;;2.00;99.90;;;;;;6042499;23;20438;-80
2023/01/20 15:41:57;;;;;;;44.17;17.02;;;2.10;99.90;;;;;;6016926;23;20066;-85
2023/01/20 15:44:24;;;;;;;41.88;16.67;;;2.10;99.90;;;;;;6042708;23;20011;-77
2023/01/20 15:46:50;;;;;;;38.80;16.20;;;2.00;99.90;;;;;;6017020;23;20011;-81
2023/01/20 15:49:16;;;;;;;41.08;16.23;;;2.00;99.90;;;;;;6042443;23;20015;-83
2023/01/20 15:51:43;;;;;;;41.38;17.35;;;2.00;99.90;;;;;;6042414;23;20375;-77
2023/01/20 15:54:09;;;;;;;44.20;16.65;;;2.00;99.90;;;;;;6042471;23;20017;-82
2023/01/20 15:56:40;;;;;;;44.95;16.70;;;2.00;99.90;;;;;;6017969;23;20019;-80
2023/01/20 15:59:20;;;;;;;40.17;16.70;;;2.00;99.90;;;;;;6043089;23;20018;-79
2023/01/20 16:01:48;;;;;;;41.17;17.15;;;1.90;99.90;;;;;;6017327;23;20016;-79
2023/01/20 16:04:14;;;;;;;42.65;16.63;;;1.90;99.90;;;;;;6017657;23;20022;-82
2023/01/20 16:06:40;;;;;;;40.35;16.73;;;1.90;99.90;;;;;;6017500;23;20342;-76
2023/01/20 16:09:23;;;;;;;40.70;16.90;;;1.90;99.90;;;;;;6017493;23;20091;-85
2023/01/20 16:11:49;;;;;;;41.15;16.45;;;1.90;99.90;;;;;;6042752;23;20016;-78
2023/01/20 16:14:14;;;;;;;44.53;17.48;;;1.80;99.90;;;;;;6017508;23;20019;-79
2023/01/20 16:16:40;;;;;;;42.28;17.45;;;1.80;99.90;;;;;;6017516;23;20063;-82
2023/01/20 16:19:06;;;;;;;40.67;16.27;;;1.80;99.90;;;;;;6043024;23;20007;-81
2023/01/20 16:21:31;;;;;;;48.05;17.83;;;1.80;99.90;;;;;;6042246;23;20133;-79
2023/01/20 16:23:57;;;;;;;45.10;18.45;;;1.80;99.90;;;;;;5993122;23;20019;-79
2023/01/20 16:26:26;;;;;;;49.63;17.90;;;1.80;99.90;;;;;;6017386;23;20346;-77
2023/01/20 16:28:56;;;;;;;41.63;17.58;;;1.80;99.90;;;;;;6017534;23;20022;-82
2023/01/20 16:31:24;;;;;;;41.17;18.10;;;1.70;99.90;;;;;;6017253;23;20024;-83
2023/01/20 16:33:51;;;;;;;52.67;18.98;;;1.70;99.90;;;;;;6042720;23;20430;-85
2023/01/20 16:36:19;;;;;;;46.15;18.02;;;1.70;99.90;;;;;;6016626;23;20482;-85
2023/01/20 16:38:45;;;;;;;46.63;19.27;;;1.70;99.90;;;;;;6042085;23;20023;-79
2023/01/20 16:41:29;;;;;;;50.38;18.65;;;1.70;99.90;;;;;;6017410;23;20023;-77
2023/01/20 16:43:55;;;;;;;51.58;20.33;;;1.70;99.90;;;;;;6042738;23;20026;-80
2023/01/20 16:46:27;;;;;;;48.53;19.52;;;1.70;99.90;;;;;;6017612;23;20098;-78
2023/01/20 16:49:00;;;;;;;53.40;21.60;;;1.70;99.90;;;;;;6017473;23;20094;-83
2023/01/20 16:51:27;;;;;;;54.53;21.13;;;1.70;99.90;;;;;;6016801;23;20019;-82
2023/01/20 16:53:54;;;;;;;47.28;19.60;;;1.70;99.90;;;;;;6016783;23;20015;-79
2023/01/20 16:56:22;;;;;;;49.58;19.95;;;1.70;99.90;;;;;;6042145;23;20338;-81
2023/01/20 16:58:52;;;;;;;46.35;19.00;;;1.70;99.90;;;;;;6042788;23;20039;-79
2023/01/20 17:01:23;;;;;;;50.10;19.63;;;1.70;99.90;;;;;;6016583;23;20093;-80
2023/01/20 17:03:50;;;;;;;44.65;19.58;;;1.70;99.90;;;;;;6016958;23;20029;-77
2023/01/20 17:06:18;;;;;;;54.17;21.33;;;1.70;99.90;;;;;;6017433;23;20019;-75
2023/01/20 17:08:45;;;;;;;48.25;20.17;;;1.70;99.90;;;;;;6015986;23;20057;-79
2023/01/20 17:11:19;;;;;;;49.95;21.08;;;1.70;99.90;;;;;;6016405;23;20449;-82
2023/01/20 17:13:45;;;;;;;47.53;19.03;;;1.70;99.90;;;;;;6016516;23;20319;-79